• Join FlightAware (Why Join?)
  • Login
  • US Flag 
11:14PM EST


 

Airport Tracker/Info


-or-


 

Live Flight TrackerFlight Track Log ✈ N884TM ✈ 16-Mar-2012 ✈ KALN - KMDQ

Flight Track Log - Related Links

Times and Time Zones

All times are in EDT time to prevent confusion due to time zone crossing. See the N884TM flight status page for this flight to view local times or setup timezone preferences in your user account.

Time Position Orientation Groundspeed Altitude Reporting Facility
EDT Latitude Longitude Course Direction KTS MPH feet Rate Location/Type
06:09PM 38.8642 -89.9875 146° Southeast 138 159 1,500  Level FAA TRACON SMA TRACON (SMA)
06:10PM 38.8392 -89.9658 129° Southeast 177 204 2,400 1,320 Climbing FAA TRACON SMA TRACON (SMA)
06:11PM 38.8136 -89.9256 116° Southeast 222 255 3,300 1,080 Climbing FAA TRACON SMA TRACON (SMA)
06:11PM 38.7933 -89.8733 116° Southeast 240 276 3,900 480 Climbing FAA TRACON SMA TRACON (SMA)
06:12PM 38.7753 -89.8261 135° Southeast 239 275 4,000 1,620 Climbing FAA TRACON SMA TRACON (SMA)
06:13PM 38.7447 -89.7872 142° Southeast 226 260 6,100 2,880 Climbing FAA TRACON SMA TRACON (SMA)
06:13PM 38.7183 -89.7606 144° Southeast 199 229 7,900 2,580 Climbing FAA TRACON SMA TRACON (SMA)
06:14PM 38.6861 -89.7311 145° Southeast 203 234 9,500 2,280 Climbing FAA TRACON SMA TRACON (SMA)
06:15PM 38.6525 -89.7011 144° Southeast 212 244 11,000 2,220 Climbing FAA TRACON SMA TRACON (SMA)
06:15PM 38.6175 -89.6689 144° Southeast 224 258 12,500 2,160 Climbing FAA TRACON SMA TRACON (SMA)
06:16PM 38.5869 -89.6403 145° Southeast 225 259 13,900 2,220 Climbing FAA TRACON SMA TRACON (SMA)
06:17PM 38.5519 -89.6094 143° Southeast 222 255 15,500 2,100 Climbing FAA TRACON SMA TRACON (SMA)
06:17PM 38.5175 -89.5767 145° Southeast 223 257 16,700 1,740 Climbing FAA TRACON SMA TRACON (SMA)
06:18PM 38.4847 -89.5478 144° Southeast 232 267 17,900 1,680 Climbing FAA TRACON SMA TRACON (SMA)
06:19PM 38.4472 -89.5136 145° Southeast 240 276 19,000 1,740 Climbing FAA TRACON SMA TRACON (SMA)
06:19PM 38.4133 -89.4833 145° Southeast 243 280 20,200 1,800 Climbing FAA TRACON SMA TRACON (SMA)
06:20PM 38.3739 -89.4478 138° Southeast 248 285 21,400 1,680 Climbing FAA TRACON SMA TRACON (SMA)
06:21PM 38.3378 -89.4061 131° Southeast 257 296 22,500 1,620 Climbing FAA TRACON SMA TRACON (SMA)
06:21PM 38.3078 -89.3622 128° Southeast 264 304 23,600 1,620 Climbing FAA TRACON SMA TRACON (SMA)
06:22PM 38.2764 -89.3111 128° Southeast 266 306 24,700 1,620 Climbing FAA TRACON SMA TRACON (SMA)
06:23PM 38.2444 -89.2597 128° Southeast 269 310 25,800 960 Climbing FAA TRACON SMA TRACON (SMA)
06:23PM 38.2372 -89.2481 158° South 269 310 26,000 660 Climbing FAA TRACON SMA TRACON (SMA)
06:24PM 38.1606 -89.2081 147° Southeast 281 323 27,000 480 Climbing Kansas City Center
06:25PM 38.0781 -89.1400 148° Southeast 308 354 27,000  Level Kansas City Center
06:26PM 38.0047 -89.0819 144° Southeast 339 390 27,000  Level Kansas City Center
06:27PM 37.9261 -89.0086 148° Southeast 339 390 27,000  Level Kansas City Center
06:28PM 37.8481 -88.9461 146° Southeast 344 396 27,000  Level Kansas City Center
06:30PM 37.6700 -88.7956 145° Southeast 341 392 27,000  Level Memphis Center
06:31PM 37.5919 -88.7264 148° Southeast 341 392 27,000  Level Memphis Center
06:32PM 37.5119 -88.6628 147° Southeast 347 399 27,000  Level Memphis Center
06:33PM 37.4297 -88.5967 146° Southeast 347 399 27,000  Level Memphis Center
06:34PM 37.3497 -88.5281 148° Southeast 352 405 27,000  Level Memphis Center
06:35PM 37.2694 -88.4647 145° Southeast 352 405 27,000  Level Memphis Center
06:36PM 37.1914 -88.3964 147° Southeast 352 405 27,000  Level Memphis Center
06:37PM 37.1069 -88.3281 147° Southeast 352 405 27,000  Level Memphis Center
06:38PM 37.0267 -88.2625 148° Southeast 352 405 27,000  Level Memphis Center
06:39PM 36.9464 -88.1997 147° Southeast 352 405 27,000  Level Memphis Center
06:40PM 36.8639 -88.1319 149° Southeast 352 405 27,000  Level Memphis Center
06:41PM 36.7794 -88.0697 147° Southeast 352 405 27,000  Level Memphis Center
06:42PM 36.6992 -88.0047 146° Southeast 347 399 27,000  Level Memphis Center
06:43PM 36.6186 -87.9372 148° Southeast 352 405 27,000  Level Memphis Center
06:44PM 36.5358 -87.8725 147° Southeast 352 405 27,000  Level Memphis Center
06:45PM 36.4556 -87.8078 147° Southeast 352 405 27,000  Level Memphis Center
06:46PM 36.3728 -87.7408 147° Southeast 352 405 27,000  Level Memphis Center
06:47PM 36.2878 -87.6714 148° Southeast 352 405 27,000  Level Memphis Center
06:48PM 36.2053 -87.6072 146° Southeast 352 405 27,000  Level Memphis Center
06:49PM 36.1222 -87.5383 148° Southeast 352 405 27,000  Level Memphis Center
06:50PM 36.0394 -87.4744 148° Southeast 352 405 27,000 -480 Level Memphis Center
06:51PM 35.9544 -87.4081 147° Southeast 352 405 26,100 -1,380 Descending Memphis Center
06:52PM 35.8717 -87.3419 148° Southeast 352 405 24,300 -1,740 Descending Memphis Center
06:53PM 35.7994 -87.2856 147° Southeast 352 405 22,700 -1,740 Descending Memphis Center
06:54PM 35.7186 -87.2197 148° Southeast 352 405 20,900 -1,800 Descending Memphis Center
06:55PM 35.6397 -87.1589 148° Southeast 344 396 19,100 -1,800 Descending Memphis Center
06:56PM 35.5675 -87.1028 147° Southeast 329 379 17,400 -1,680 Descending Memphis Center
06:57PM 35.4972 -87.0469 149° Southeast 313 360 15,800 -1,680 Descending Memphis Center
06:58PM 35.4225 -86.9914 148° Southeast 313 360 14,100 -1,800 Descending Memphis Center
06:59PM 35.3439 -86.9308 146° Southeast 305 351 12,300 -1,080 Descending Memphis Center
07:00PM 35.2756 -86.8753 150° Southeast 305 351 12,000 -180 Descending Memphis Center
07:01PM 35.2053 -86.8247 146° Southeast 305 351 12,000 -1,080 Level Memphis Center
07:02PM 35.1411 -86.7717 147° Southeast 296 341 9,900 -2,460 Descending Memphis Center
07:03PM 35.0856 -86.7283 150° Southeast 277 319 7,100 -2,400 Descending Memphis Center
07:04PM 35.0217 -86.6831 148° Southeast 272 313 5,100 -1,320 Descending Memphis Center
07:05PM 34.9492 -86.6278 149° Southeast 272 313 4,500 900 Descending Memphis Center
07:06PM 34.8850 -86.5800 148° Southeast 272 313 7,000 1,200 Climbing Memphis Center
07:07PM 34.8211 -86.5322 149° Southeast 272 313 7,000  Level Memphis Center
07:08PM 34.7569 -86.4847 148° Southeast 272 313 7,000  Level Memphis Center
07:09PM 34.7314 -86.4656 360° North 272 313 7,000  Level Memphis Center
07:10PM 34.7314 -86.4656 360° North 272 313 7,000  Level Memphis Center
07:11PM 34.7314 -86.4656 360° North 272 313 7,000  Level Memphis Center
07:12PM 34.7314 -86.4656 360° North 272 313 7,000  Level Memphis Center
07:13PM 34.7314 -86.4656 360° North 272 313 7,000  Level Memphis Center
07:14PM 34.7314 -86.4656 139° Southeast 272 313 7,000  Level Memphis Center
07:22PM 34.2605 -85.9717 139° Southeast  Level FlightAware Approximate